createdAt,value
2019-03-29T00:04:00.269Z,10.17
2019-03-29T00:09:06.174Z,10.13
2019-03-29T00:14:09.231Z,9.57
2019-03-29T00:19:12.283Z,11.23
2019-03-29T00:24:15.323Z,14.03
2019-03-29T00:29:18.637Z,12.27
2019-03-29T00:34:21.847Z,9.47
2019-03-29T00:39:24.863Z,10.13
2019-03-29T00:44:27.962Z,13.63
2019-03-29T00:49:32.879Z,12.23
2019-03-29T00:54:36.223Z,15.07
2019-03-29T00:59:39.363Z,14.97
2019-03-29T01:04:43.490Z,13.77
2019-03-29T01:09:46.586Z,15.30
2019-03-29T01:14:49.637Z,13.43
2019-03-29T01:19:52.693Z,15.00
2019-03-29T01:24:55.742Z,14.90
2019-03-29T01:29:58.835Z,15.57
2019-03-29T01:35:03.782Z,14.97
2019-03-29T01:40:08.916Z,14.77
2019-03-29T01:45:12.779Z,14.67
2019-03-29T01:50:16.270Z,15.30
2019-03-29T01:55:19.307Z,13.87
2019-03-29T02:00:30.311Z,15.23
2019-03-29T02:05:33.458Z,12.83
2019-03-29T02:10:36.560Z,14.47
2019-03-29T02:15:39.633Z,12.80
2019-03-29T02:20:42.684Z,13.50
2019-03-29T02:25:45.748Z,12.73
2019-03-29T02:30:49.009Z,12.70
2019-03-29T02:35:52.077Z,15.20
2019-03-29T02:40:55.476Z,14.23
2019-03-29T02:45:58.829Z,13.57
2019-03-29T02:51:02.043Z,14.77
2019-03-29T02:56:05.254Z,15.10
2019-03-29T03:01:10.263Z,13.77
2019-03-29T03:06:14.852Z,13.20
2019-03-29T03:11:17.845Z,13.13
2019-03-29T03:16:21.060Z,13.30
2019-03-29T03:21:24.259Z,12.43
2019-03-29T03:26:27.292Z,9.33
2019-03-29T03:31:30.800Z,13.10
2019-03-29T03:36:34.010Z,12.93
2019-03-29T03:41:37.450Z,13.67
2019-03-29T03:46:40.739Z,13.17
2019-03-29T03:51:43.813Z,13.53
2019-03-29T03:56:50.455Z,13.87
2019-03-29T04:01:53.573Z,15.57
2019-03-29T04:06:57.755Z,15.17
2019-03-29T04:12:01.094Z,16.00
2019-03-29T04:17:04.365Z,13.77
2019-03-29T04:22:07.817Z,13.93
2019-03-29T04:27:11.029Z,15.20
2019-03-29T04:32:14.097Z,15.37
2019-03-29T04:37:17.166Z,15.27
2019-03-29T04:42:20.224Z,17.57
2019-03-29T04:47:23.276Z,15.37
2019-03-29T04:52:26.336Z,16.37
2019-03-29T04:57:29.389Z,17.30
2019-03-29T05:02:32.461Z,17.70
2019-03-29T05:07:37.047Z,16.70
2019-03-29T05:12:42.092Z,17.50
2019-03-29T05:17:45.080Z,21.50
2019-03-29T05:22:48.186Z,18.43
2019-03-29T05:27:51.211Z,20.27
2019-03-29T05:32:54.606Z,21.40
2019-03-29T05:37:57.818Z,22.73
2019-03-29T05:43:01.025Z,21.50
2019-03-29T05:48:04.235Z,22.37
2019-03-29T05:53:09.143Z,23.77
2019-03-29T05:58:12.121Z,22.97
2019-03-29T06:03:15.164Z,20.30
2019-03-29T06:08:18.262Z,22.83
2019-03-29T06:13:21.516Z,23.10
2019-03-29T06:18:24.594Z,25.13
2019-03-29T06:23:27.652Z,22.43
2019-03-29T06:28:30.729Z,23.23
2019-03-29T06:33:33.872Z,23.33
2019-03-29T06:38:38.624Z,22.27
2019-03-29T06:43:41.680Z,21.83
2019-03-29T06:48:44.912Z,22.10
2019-03-29T06:53:48.122Z,21.77
2019-03-29T06:58:51.331Z,20.90
2019-03-29T07:03:54.335Z,21.27
2019-03-29T07:08:57.447Z,21.67
2019-03-29T07:14:00.468Z,21.30
2019-03-29T07:19:05.084Z,21.43
2019-03-29T07:24:08.614Z,21.50
2019-03-29T07:29:11.700Z,20.93
2019-03-29T07:34:14.848Z,21.77
2019-03-29T07:39:17.933Z,22.50
2019-03-29T07:49:58.142Z,21.60
2019-03-29T07:55:01.145Z,20.17
2019-03-29T08:00:05.313Z,22.03
2019-03-29T08:05:09.002Z,22.27
2019-03-29T08:10:24.012Z,22.00
2019-03-29T08:15:17.266Z,20.90
2019-03-29T08:25:25.184Z,21.90
2019-03-29T08:30:28.236Z,21.33
2019-03-29T08:35:31.294Z,21.97
2019-03-29T08:40:34.344Z,21.40
2019-03-29T08:45:37.474Z,21.30
2019-03-29T08:50:40.793Z,20.87
2019-03-29T08:55:45.930Z,22.90
2019-03-29T09:00:48.959Z,22.57
2019-03-29T09:05:52.132Z,23.67
2019-03-29T09:10:55.248Z,25.40
2019-03-29T09:16:00.238Z,24.33
2019-03-29T09:21:03.324Z,24.57
2019-03-29T09:26:06.380Z,26.70
2019-03-29T09:31:10.030Z,27.80
2019-03-29T09:36:13.546Z,26.27
2019-03-29T09:41:16.562Z,27.20
2019-03-29T09:46:19.619Z,26.23
2019-03-29T09:51:22.869Z,29.43
2019-03-29T09:56:37.861Z,26.83
2019-03-29T10:01:31.219Z,27.00
2019-03-29T10:06:34.372Z,27.30
2019-03-29T10:11:37.438Z,27.47
2019-03-29T10:16:40.764Z,28.47
2019-03-29T10:21:43.813Z,28.53
2019-03-29T10:26:46.868Z,30.97
2019-03-29T10:31:50.238Z,31.43
2019-03-29T10:36:53.345Z,29.97
2019-03-29T10:41:56.509Z,29.63
2019-03-29T10:46:59.720Z,30.60
2019-03-29T10:52:02.732Z,29.10
2019-03-29T10:57:05.833Z,28.63
2019-03-29T11:02:08.872Z,29.53
2019-03-29T11:07:11.946Z,27.70
2019-03-29T11:12:15.157Z,28.57
2019-03-29T11:17:18.153Z,28.03
2019-03-29T11:22:21.217Z,26.53
2019-03-29T11:27:24.274Z,29.00
2019-03-29T11:32:27.333Z,27.93
2019-03-29T11:37:30.435Z,27.80
2019-03-29T11:42:33.497Z,29.40
2019-03-29T11:47:36.545Z,28.57
2019-03-29T11:52:39.631Z,28.43
2019-03-29T11:57:42.821Z,26.87
2019-03-29T12:02:45.857Z,29.83
2019-03-29T12:07:48.900Z,27.37
2019-03-29T12:12:52.146Z,28.40
2019-03-29T12:17:55.216Z,29.13
2019-03-29T12:22:58.289Z,31.10
2019-03-29T12:28:03.102Z,29.43
2019-03-29T12:33:06.523Z,31.20
2019-03-29T12:38:09.737Z,30.83
2019-03-29T12:43:12.918Z,32.50
2019-03-29T12:48:16.278Z,32.53
2019-03-29T12:53:19.362Z,33.70
2019-03-29T12:58:22.496Z,34.07
2019-03-29T13:03:25.547Z,37.23
2019-03-29T13:08:28.606Z,35.77
2019-03-29T13:13:31.897Z,36.47
2019-03-29T13:18:35.016Z,35.73
2019-03-29T13:23:38.318Z,35.40
2019-03-29T13:28:41.530Z,39.03
2019-03-29T13:33:44.586Z,39.57
2019-03-29T13:38:47.641Z,38.67
2019-03-29T13:43:50.851Z,38.97
2019-03-29T13:48:54.062Z,37.73
2019-03-29T13:53:57.273Z,38.90
2019-03-29T13:59:02.193Z,37.93
2019-03-29T14:04:05.538Z,41.17
2019-03-29T14:09:09.621Z,37.47
2019-03-29T14:14:12.881Z,37.33
2019-03-29T14:19:17.579Z,40.30
2019-03-29T14:24:20.836Z,37.40
2019-03-29T14:29:24.053Z,37.50
2019-03-29T14:34:27.113Z,36.67
2019-03-29T14:39:30.163Z,40.73
2019-03-29T14:44:33.218Z,40.80
2019-03-29T14:49:36.580Z,35.17
2019-03-29T14:54:39.697Z,36.17
2019-03-29T14:59:43.773Z,37.90
2019-03-29T15:04:46.847Z,41.43
2019-03-29T15:09:51.183Z,40.47
2019-03-29T15:15:05.474Z,40.83
2019-03-29T15:19:59.137Z,37.37
2019-03-29T15:25:03.801Z,35.87
2019-03-29T15:30:07.304Z,35.67
2019-03-29T15:35:10.376Z,36.77
2019-03-29T15:40:15.275Z,36.30
2019-03-29T15:45:20.793Z,35.77
2019-03-29T15:50:23.174Z,32.87
2019-03-29T15:55:26.239Z,33.60
2019-03-29T16:00:29.294Z,30.87
2019-03-29T16:05:32.547Z,28.97
2019-03-29T16:10:35.603Z,30.30
2019-03-29T16:15:38.667Z,30.57
2019-03-29T16:20:41.728Z,31.20
2019-03-29T16:25:44.811Z,29.73
2019-03-29T16:30:47.987Z,29.53
2019-03-29T16:35:51.076Z,29.90
2019-03-29T16:40:54.169Z,30.23
2019-03-29T16:45:57.791Z,31.70
2019-03-29T16:51:01.002Z,33.03
2019-03-29T16:56:04.076Z,28.67
2019-03-29T17:01:07.432Z,34.30
2019-03-29T17:06:10.495Z,29.40
2019-03-29T17:11:13.845Z,66.83
2019-03-29T17:16:29.452Z,29.40
2019-03-29T17:21:22.550Z,41.07
2019-03-29T17:26:25.611Z,31.60
2019-03-29T17:31:28.668Z,35.07
2019-03-29T17:36:32.045Z,38.90
2019-03-29T17:41:35.157Z,36.70
2019-03-29T17:46:38.240Z,37.27
2019-03-29T17:51:41.694Z,34.60
2019-03-29T17:56:44.793Z,36.33
2019-03-29T18:01:47.943Z,34.20
2019-03-29T18:06:51.035Z,37.27
2019-03-29T18:11:54.221Z,37.53
2019-03-29T18:16:57.281Z,37.83
2019-03-29T18:22:00.633Z,37.80
2019-03-29T18:27:03.918Z,37.60
2019-03-29T18:32:07.360Z,39.07
2019-03-29T18:37:12.561Z,36.90
2019-03-29T18:42:15.642Z,35.37
2019-03-29T18:47:18.834Z,35.73
2019-03-29T18:52:22.044Z,34.20
2019-03-29T18:57:27.035Z,32.17
2019-03-29T19:02:30.309Z,35.87
2019-03-29T19:07:35.354Z,32.90
2019-03-29T19:12:38.604Z,33.90
2019-03-29T19:17:41.785Z,33.80
2019-03-29T19:22:44.858Z,34.40
2019-03-29T19:27:49.853Z,36.20
2019-03-29T19:32:52.950Z,35.47
2019-03-29T19:37:56.161Z,36.50
2019-03-29T19:42:59.207Z,35.23
2019-03-29T19:48:02.581Z,36.20
2019-03-29T19:53:05.814Z,39.23
2019-03-29T19:58:10.836Z,37.77
2019-03-29T20:03:13.805Z,44.97
2019-03-29T20:08:18.680Z,39.60
2019-03-29T20:13:21.734Z,48.27
2019-03-29T20:18:24.849Z,50.77
2019-03-29T20:23:27.905Z,53.77
2019-03-29T20:28:32.172Z,59.40
2019-03-29T20:33:35.247Z,59.83
2019-03-29T20:38:38.304Z,61.60
2019-03-29T20:43:41.366Z,66.10
2019-03-29T20:48:46.304Z,62.93
2019-03-29T20:53:49.538Z,65.80
2019-03-29T20:58:52.747Z,65.70
2019-03-29T21:03:57.703Z,67.07
2019-03-29T21:09:00.652Z,60.13
2019-03-29T21:14:04.064Z,66.20
2019-03-29T21:19:07.483Z,66.93
2019-03-29T21:24:10.552Z,73.77
2019-03-29T21:29:13.680Z,65.30
2019-03-29T21:34:16.747Z,73.03
2019-03-29T21:39:19.967Z,71.77
2019-03-29T21:44:22.999Z,79.13
2019-03-29T21:49:26.123Z,76.93
2019-03-29T21:54:29.179Z,75.47
2019-03-29T21:59:34.153Z,74.67
2019-03-29T22:04:37.191Z,72.60
2019-03-29T22:09:40.261Z,72.30
2019-03-29T22:14:43.359Z,73.33
2019-03-29T22:19:46.573Z,79.10
2019-03-29T22:24:49.785Z,76.43
2019-03-29T22:29:52.992Z,79.17
2019-03-29T22:34:57.967Z,78.63
2019-03-29T22:40:01.403Z,84.90
2019-03-29T22:45:07.089Z,87.57
2019-03-29T22:50:11.364Z,78.20
2019-03-29T22:55:15.589Z,79.90
2019-03-29T23:00:25.375Z,75.13
2019-03-29T23:05:30.359Z,75.77
2019-03-29T23:10:33.625Z,86.77
2019-03-29T23:15:36.838Z,86.63
2019-03-29T23:20:40.090Z,81.73
2019-03-29T23:25:46.772Z,77.20
2019-03-29T23:30:49.952Z,77.80
2019-03-29T23:35:53.167Z,83.37
2019-03-29T23:40:56.594Z,84.97
2019-03-29T23:45:59.683Z,88.33
2019-03-29T23:51:04.626Z,89.20
2019-03-29T23:56:07.719Z,81.53
